createdAt,value
2022-08-16T00:02:34.133Z,25.55
2022-08-16T00:05:02.990Z,25.02
2022-08-16T00:07:31.697Z,24.08
2022-08-16T00:10:00.899Z,23.95
2022-08-16T00:12:31.931Z,24.65
2022-08-16T00:15:13.900Z,24.70
2022-08-16T00:17:56.209Z,24.48
2022-08-16T00:20:26.526Z,24.85
2022-08-16T00:22:55.184Z,22.02
2022-08-16T00:26:34.855Z,21.63
2022-08-16T00:28:14.312Z,22.02
2022-08-16T00:30:44.860Z,21.92
2022-08-16T00:33:13.942Z,21.48
2022-08-16T00:35:44.958Z,22.17
2022-08-16T00:38:41.326Z,21.02
2022-08-16T00:41:07.329Z,22.50
2022-08-16T00:43:43.318Z,21.27
2022-08-16T00:46:22.399Z,20.35
2022-08-16T00:49:18.866Z,19.58
2022-08-16T00:51:54.888Z,21.60
2022-08-16T00:54:26.151Z,21.67
2022-08-16T00:56:59.893Z,20.90
2022-08-16T00:59:34.695Z,21.73
2022-08-16T01:02:30.680Z,20.42
2022-08-16T01:05:10.371Z,19.13
2022-08-16T01:07:51.956Z,18.02
2022-08-16T01:10:31.621Z,18.40
2022-08-16T01:13:06.162Z,17.95
2022-08-16T01:15:36.919Z,18.42
2022-08-16T01:18:39.984Z,18.65
2022-08-16T01:21:22.403Z,18.40
2022-08-16T01:24:52.437Z,18.52
2022-08-16T01:27:10.524Z,19.50
2022-08-16T01:29:58.492Z,19.20
2022-08-16T01:32:33.673Z,19.33
2022-08-16T01:35:06.713Z,19.52
2022-08-16T01:37:42.877Z,20.20
2022-08-16T01:40:16.249Z,21.38
2022-08-16T01:42:48.164Z,19.90
2022-08-16T01:45:19.787Z,20.38
2022-08-16T01:47:51.808Z,20.75
2022-08-16T01:50:43.164Z,20.95
2022-08-16T01:53:11.938Z,21.52
2022-08-16T01:55:42.898Z,21.10
2022-08-16T01:58:23.955Z,21.17
2022-08-16T02:00:52.383Z,21.98
2022-08-16T02:03:24.977Z,21.45
2022-08-16T02:05:55.350Z,21.48
2022-08-16T02:08:33.384Z,21.73
2022-08-16T02:11:08.626Z,22.20
2022-08-16T02:13:41.680Z,22.55
2022-08-16T02:16:18.883Z,22.13
2022-08-16T02:18:48.460Z,21.75
2022-08-16T02:21:30.975Z,21.48
2022-08-16T02:24:00.291Z,21.13
2022-08-16T02:26:34.348Z,20.20
2022-08-16T02:29:03.035Z,21.38
2022-08-16T02:32:03.399Z,21.10
2022-08-16T02:34:21.470Z,21.50
2022-08-16T02:37:01.744Z,21.30
2022-08-16T02:39:30.476Z,21.13
2022-08-16T02:42:00.408Z,19.52
2022-08-16T02:44:28.964Z,20.02
2022-08-16T02:46:57.947Z,20.38
2022-08-16T02:49:58.509Z,21.15
2022-08-16T02:52:24.470Z,20.23
2022-08-16T02:54:55.578Z,20.88
2022-08-16T02:57:26.190Z,20.98
2022-08-16T02:59:55.291Z,21.05
2022-08-16T03:02:31.906Z,22.00
2022-08-16T03:05:01.735Z,21.67
2022-08-16T03:07:30.542Z,21.48
2022-08-16T03:10:07.576Z,21.85
2022-08-16T03:12:37.971Z,22.23
2022-08-16T03:15:24.435Z,22.88
2022-08-16T03:17:54.296Z,21.80
2022-08-16T03:20:32.224Z,22.00
2022-08-16T03:23:01.898Z,22.80
2022-08-16T03:25:43.333Z,21.65
2022-08-16T03:28:17.179Z,23.33
2022-08-16T03:30:46.412Z,22.92
2022-08-16T03:33:16.920Z,23.42
2022-08-16T03:35:46.054Z,23.98
2022-08-16T03:38:33.444Z,23.65
2022-08-16T03:41:05.533Z,22.92
2022-08-16T03:43:54.614Z,23.15
2022-08-16T03:46:44.303Z,23.65
2022-08-16T03:49:12.549Z,23.35
2022-08-16T03:51:43.945Z,24.15
2022-08-16T03:54:13.004Z,24.58
2022-08-16T03:56:57.372Z,24.50
2022-08-16T03:59:29.275Z,25.38
2022-08-16T04:01:59.203Z,24.40
2022-08-16T04:04:33.024Z,24.88
2022-08-16T04:07:04.097Z,25.50
2022-08-16T04:09:35.782Z,24.58
2022-08-16T04:12:10.666Z,25.70
2022-08-16T04:14:57.243Z,26.15
2022-08-16T04:17:27.016Z,25.50
2022-08-16T04:19:58.113Z,25.60
2022-08-16T04:22:28.445Z,24.10
2022-08-16T04:24:59.439Z,24.58
2022-08-16T04:27:31.620Z,25.17
2022-08-16T04:30:03.679Z,25.98
2022-08-16T04:32:32.316Z,25.85
2022-08-16T04:35:04.875Z,25.33
2022-08-16T04:37:42.242Z,25.02
2022-08-16T04:40:21.704Z,25.52
2022-08-16T04:42:50.736Z,26.08
2022-08-16T04:45:36.357Z,27.08
2022-08-16T04:48:06.262Z,26.67
2022-08-16T04:50:34.857Z,25.65
2022-08-16T04:53:04.067Z,26.25
2022-08-16T04:55:38.423Z,26.27
2022-08-16T04:58:43.694Z,25.08
2022-08-16T05:00:59.117Z,26.90
2022-08-16T05:03:28.927Z,27.40
2022-08-16T05:06:00.020Z,25.88
2022-08-16T05:08:34.404Z,26.23
2022-08-16T05:11:08.328Z,26.55
2022-08-16T05:16:20.090Z,26.33
2022-08-16T05:18:51.148Z,25.38
2022-08-16T05:21:21.478Z,27.38
2022-08-16T05:23:51.723Z,28.55
2022-08-16T05:26:29.221Z,27.52
2022-08-16T05:28:58.281Z,27.13
2022-08-16T05:31:30.804Z,27.27
2022-08-16T05:34:03.645Z,28.40
2022-08-16T05:36:36.702Z,27.98
2022-08-16T05:39:08.788Z,28.10
2022-08-16T05:41:45.362Z,22.13
2022-08-16T05:44:23.684Z,22.45
2022-08-16T05:47:00.262Z,19.65
2022-08-16T05:49:38.356Z,20.30
2022-08-16T05:52:10.711Z,22.02
2022-08-16T05:54:46.572Z,21.27
2022-08-16T05:59:45.579Z,22.13
2022-08-16T06:02:17.002Z,21.70
2022-08-16T06:04:46.348Z,22.00
2022-08-16T06:07:26.276Z,22.85
2022-08-16T06:09:59.648Z,22.58
2022-08-16T06:12:29.151Z,23.03
2022-08-16T06:15:00.023Z,21.05
2022-08-16T06:17:42.385Z,21.70
2022-08-16T06:20:18.562Z,22.10
2022-08-16T06:22:57.476Z,22.38
2022-08-16T06:25:36.489Z,21.15
2022-08-16T06:28:17.278Z,20.17
2022-08-16T06:30:59.539Z,20.88
2022-08-16T06:33:41.226Z,20.63
2022-08-16T06:36:11.486Z,22.17
2022-08-16T06:38:55.354Z,21.65
2022-08-16T06:41:27.544Z,22.10
2022-08-16T06:43:56.620Z,21.80
2022-08-16T06:46:31.658Z,21.40
2022-08-16T06:49:02.523Z,20.92
2022-08-16T06:51:45.189Z,21.87
2022-08-16T06:54:17.960Z,21.85
2022-08-16T06:56:46.488Z,21.95
2022-08-16T06:59:15.079Z,21.77
2022-08-16T07:01:54.545Z,20.75
2022-08-16T07:04:32.909Z,21.30
2022-08-16T07:07:09.557Z,21.65
2022-08-16T07:09:38.872Z,20.67
2022-08-16T07:12:08.179Z,20.23
2022-08-16T07:14:37.257Z,20.83
2022-08-16T07:17:07.851Z,19.55
2022-08-16T07:20:03.012Z,19.80
2022-08-16T07:22:37.084Z,20.25
2022-08-16T07:25:08.644Z,20.83
2022-08-16T07:27:38.693Z,19.58
2022-08-16T07:30:39.786Z,18.30
2022-08-16T07:33:00.313Z,18.23
2022-08-16T07:35:30.312Z,19.15
2022-08-16T07:37:58.981Z,18.23
2022-08-16T07:40:58.082Z,18.08
2022-08-16T07:43:16.112Z,18.70
2022-08-16T07:45:48.261Z,17.98
2022-08-16T07:48:22.483Z,17.73
2022-08-16T07:50:59.206Z,16.67
2022-08-16T07:53:29.640Z,16.50
2022-08-16T07:56:00.533Z,17.33
2022-08-16T07:58:34.753Z,16.83
2022-08-16T08:01:10.421Z,16.58
2022-08-16T08:03:47.687Z,15.77
2022-08-16T08:06:19.431Z,16.17
2022-08-16T08:08:50.724Z,17.77
2022-08-16T08:11:23.568Z,16.55
2022-08-16T08:13:53.969Z,16.58
2022-08-16T08:16:30.658Z,16.10
2022-08-16T08:19:02.897Z,15.52
2022-08-16T08:22:00.233Z,18.38
2022-08-16T08:24:32.359Z,16.20
2022-08-16T08:27:02.345Z,16.60
2022-08-16T08:29:37.296Z,16.98
2022-08-16T08:35:00.242Z,18.85
2022-08-16T08:37:55.725Z,17.48
2022-08-16T08:40:24.704Z,15.50
2022-08-16T08:42:57.917Z,14.75
2022-08-16T08:45:48.439Z,16.70
2022-08-16T08:48:34.423Z,17.05
2022-08-16T08:51:05.260Z,16.30
2022-08-16T08:53:39.894Z,15.75
2022-08-16T08:56:23.123Z,14.20
2022-08-16T08:58:58.841Z,12.60
2022-08-16T09:01:36.713Z,13.93
2022-08-16T09:04:14.729Z,14.07
2022-08-16T09:06:46.400Z,12.25
2022-08-16T09:09:17.432Z,11.50
2022-08-16T09:11:52.380Z,12.23
2022-08-16T09:14:23.595Z,13.18
2022-08-16T09:17:00.923Z,13.50
2022-08-16T09:19:37.252Z,13.07
2022-08-16T09:22:20.735Z,12.77
2022-08-16T09:24:54.034Z,13.50
2022-08-16T09:27:56.528Z,13.05
2022-08-16T09:30:42.871Z,12.43
2022-08-16T09:33:14.561Z,13.30
2022-08-16T09:35:43.237Z,12.30
2022-08-16T09:38:31.090Z,12.43
2022-08-16T09:41:04.504Z,12.75
2022-08-16T09:43:59.435Z,12.23
2022-08-16T09:46:48.761Z,13.35
2022-08-16T09:49:12.567Z,12.63
2022-08-16T09:51:41.665Z,12.70
2022-08-16T09:54:16.697Z,13.10
2022-08-16T09:56:52.601Z,11.38
2022-08-16T09:59:25.170Z,13.60
2022-08-16T10:01:54.828Z,12.98
2022-08-16T10:04:30.370Z,11.65
2022-08-16T10:07:14.686Z,11.27
2022-08-16T10:09:55.550Z,11.48
2022-08-16T10:12:45.547Z,12.15
2022-08-16T10:15:17.796Z,11.70
2022-08-16T10:18:01.615Z,14.75
2022-08-16T10:20:34.571Z,11.93
2022-08-16T10:23:07.266Z,12.23
2022-08-16T10:27:19.015Z,11.00
2022-08-16T10:28:32.599Z,10.25
2022-08-16T10:31:14.513Z,9.93
2022-08-16T10:33:46.295Z,9.68
2022-08-16T10:36:39.294Z,10.20
2022-08-16T10:39:05.652Z,9.48
2022-08-16T10:41:37.671Z,10.20
2022-08-16T10:44:09.498Z,8.98
2022-08-16T10:46:41.588Z,9.13
2022-08-16T10:49:12.285Z,8.73
2022-08-16T10:52:02.409Z,8.45
2022-08-16T10:54:30.886Z,8.43
2022-08-16T10:57:00.170Z,8.30
2022-08-16T10:59:39.105Z,8.20
2022-08-16T11:02:59.696Z,8.15
2022-08-16T11:05:08.868Z,9.00
2022-08-16T11:19:05.419Z,9.95
2022-08-16T11:22:11.135Z,9.68
2022-08-16T11:24:42.657Z,9.88
2022-08-16T11:27:23.253Z,9.02
2022-08-16T11:29:55.714Z,9.68
2022-08-16T11:32:31.494Z,9.93
2022-08-16T11:35:13.458Z,9.77
2022-08-16T11:40:38.655Z,12.20
2022-08-16T11:43:07.777Z,9.77
2022-08-16T11:45:39.451Z,9.20
2022-08-16T11:48:14.060Z,9.68
2022-08-16T11:50:44.853Z,8.85
2022-08-16T11:53:15.183Z,8.05
2022-08-16T11:55:46.237Z,8.27
2022-08-16T11:58:20.064Z,7.78
2022-08-16T12:00:53.106Z,8.15
2022-08-16T12:03:34.544Z,7.55
2022-08-16T12:06:11.311Z,7.20
2022-08-16T12:09:00.680Z,7.10
2022-08-16T12:11:32.014Z,9.10
2022-08-16T12:14:01.933Z,7.30
2022-08-16T12:16:34.823Z,7.35
2022-08-16T12:19:10.777Z,7.43
2022-08-16T12:21:58.629Z,8.70
2022-08-16T12:24:28.895Z,7.72
2022-08-16T12:26:57.968Z,7.53
2022-08-16T12:29:29.461Z,8.10
2022-08-16T12:32:26.746Z,6.90
2022-08-16T12:34:53.143Z,7.00
2022-08-16T12:37:24.194Z,7.40
2022-08-16T12:39:55.017Z,8.27
2022-08-16T12:42:34.421Z,7.20
2022-08-16T12:45:05.940Z,6.53
2022-08-16T12:47:55.118Z,7.07
2022-08-16T12:50:33.395Z,7.10
2022-08-16T12:53:03.490Z,7.65
2022-08-16T12:55:33.568Z,7.43
2022-08-16T12:58:13.896Z,7.68
2022-08-16T13:00:59.168Z,7.28
2022-08-16T13:03:28.941Z,7.18
2022-08-16T13:06:02.671Z,6.78
2022-08-16T13:08:33.440Z,7.20
2022-08-16T13:11:03.622Z,7.50
2022-08-16T13:13:34.032Z,7.05
2022-08-16T13:16:15.405Z,7.50
2022-08-16T13:18:51.684Z,8.27
2022-08-16T13:23:55.584Z,7.10
2022-08-16T13:26:26.197Z,7.40
2022-08-16T13:28:55.407Z,6.95
2022-08-16T13:31:24.319Z,6.70
2022-08-16T13:33:58.886Z,6.30
2022-08-16T13:36:48.518Z,6.85
2022-08-16T13:39:18.217Z,6.85
2022-08-16T13:41:53.482Z,7.20
2022-08-16T13:44:48.915Z,7.47
2022-08-16T13:47:11.745Z,7.07
2022-08-16T13:49:43.392Z,6.75
2022-08-16T13:52:14.119Z,6.45
2022-08-16T13:54:42.614Z,6.65
2022-08-16T13:57:11.558Z,6.95
2022-08-16T13:59:40.992Z,6.63
2022-08-16T14:02:11.373Z,6.75
2022-08-16T14:04:42.377Z,6.60
2022-08-16T14:07:19.910Z,7.55
2022-08-16T14:09:55.082Z,6.78
2022-08-16T14:12:27.481Z,6.53
2022-08-16T14:14:57.486Z,6.78
2022-08-16T14:17:28.477Z,7.55
2022-08-16T14:20:00.041Z,9.10
2022-08-16T14:22:35.991Z,7.38
2022-08-16T14:25:16.338Z,7.72
2022-08-16T14:27:45.326Z,7.05
2022-08-16T14:30:16.212Z,6.03
2022-08-16T14:32:49.720Z,5.70
2022-08-16T14:35:36.686Z,6.80
2022-08-16T14:38:18.618Z,6.03
2022-08-16T14:40:52.700Z,6.03
2022-08-16T14:43:24.013Z,6.30
2022-08-16T14:45:54.971Z,5.50
2022-08-16T14:48:26.284Z,5.40
2022-08-16T14:50:56.070Z,5.07
2022-08-16T14:53:28.016Z,6.13
2022-08-16T14:55:57.133Z,5.18
2022-08-16T14:58:34.489Z,6.32
2022-08-16T15:01:05.970Z,6.05
2022-08-16T15:03:37.554Z,6.13
2022-08-16T15:06:08.546Z,5.50
2022-08-16T15:08:45.798Z,6.63
2022-08-16T15:11:14.500Z,5.07
2022-08-16T15:13:46.085Z,5.47
2022-08-16T15:16:16.636Z,7.72
2022-08-16T15:18:46.434Z,6.93
2022-08-16T15:21:15.399Z,5.45
2022-08-16T15:23:45.193Z,5.55
2022-08-16T15:26:22.258Z,6.50
2022-08-16T15:29:02.100Z,6.47
2022-08-16T15:31:32.674Z,5.75
2022-08-16T15:34:04.337Z,5.22
2022-08-16T15:36:32.782Z,6.00
2022-08-16T15:39:37.157Z,6.57
2022-08-16T15:42:02.805Z,6.22
2022-08-16T15:44:45.101Z,6.15
2022-08-16T15:47:25.671Z,6.40
2022-08-16T15:49:56.129Z,5.15
2022-08-16T15:52:29.171Z,5.63
2022-08-16T15:55:13.103Z,7.70
2022-08-16T15:57:51.195Z,5.72
2022-08-16T16:00:21.212Z,6.97
2022-08-16T16:02:50.321Z,5.80
2022-08-16T16:05:20.288Z,5.63
2022-08-16T16:07:56.922Z,6.45
2022-08-16T16:10:39.393Z,6.05
2022-08-16T16:13:09.078Z,5.72
2022-08-16T16:15:43.218Z,7.63
2022-08-16T16:18:13.281Z,5.80
2022-08-16T16:20:46.324Z,7.45
2022-08-16T16:23:16.875Z,8.10
2022-08-16T16:25:47.241Z,5.70
2022-08-16T16:29:05.989Z,4.90
2022-08-16T16:31:12.353Z,6.20
2022-08-16T16:33:44.441Z,7.95
2022-08-16T16:36:19.575Z,7.85
2022-08-16T16:38:50.515Z,5.10
2022-08-16T16:41:24.501Z,5.82
2022-08-16T16:43:56.093Z,5.68
2022-08-16T16:46:41.212Z,5.82
2022-08-16T16:49:14.696Z,5.78
2022-08-16T16:51:50.011Z,5.65
2022-08-16T16:54:27.781Z,5.77
2022-08-16T16:56:59.243Z,5.90
2022-08-16T16:59:28.752Z,5.50
2022-08-16T17:02:38.890Z,6.28
2022-08-16T17:04:48.619Z,6.65
2022-08-16T17:07:17.502Z,5.88
2022-08-16T17:09:49.169Z,6.55
2022-08-16T17:12:24.698Z,6.28
2022-08-16T17:15:08.936Z,5.75
2022-08-16T17:18:00.098Z,5.47
2022-08-16T17:20:30.341Z,5.30
2022-08-16T17:22:59.125Z,5.93
2022-08-16T17:25:35.061Z,5.95
2022-08-16T17:28:58.086Z,7.15
2022-08-16T17:30:56.257Z,5.45
2022-08-16T17:33:24.764Z,5.68
2022-08-16T17:38:44.001Z,11.65
2022-08-16T17:39:28.203Z,9.25
2022-08-16T17:41:16.317Z,12.35
2022-08-16T17:43:46.300Z,11.77
2022-08-16T17:46:50.770Z,9.45
2022-08-16T17:49:05.508Z,14.82
2022-08-16T17:51:34.327Z,12.68
2022-08-16T17:54:03.705Z,51.30
2022-08-16T17:56:32.861Z,27.27
2022-08-16T17:59:02.797Z,13.55
2022-08-16T18:01:31.603Z,9.25
2022-08-16T18:04:07.445Z,10.77
2022-08-16T18:06:38.539Z,42.95
2022-08-16T18:09:07.818Z,21.48
2022-08-16T18:11:41.179Z,8.75
2022-08-16T18:14:13.314Z,9.68
2022-08-16T18:16:41.995Z,19.33
2022-08-16T18:19:11.279Z,13.60
2022-08-16T18:21:57.085Z,10.70
2022-08-16T18:24:28.390Z,11.50
2022-08-16T18:26:57.117Z,10.68
2022-08-16T18:29:48.671Z,9.13
2022-08-16T18:32:21.897Z,9.60
2022-08-16T18:34:54.144Z,10.57
2022-08-16T18:37:23.347Z,10.55
2022-08-16T18:39:52.149Z,11.45
2022-08-16T18:42:21.014Z,11.05
2022-08-16T18:44:51.154Z,9.27
2022-08-16T18:47:19.644Z,8.35
2022-08-16T18:49:48.293Z,8.73
2022-08-16T18:52:25.040Z,8.50
2022-08-16T18:55:02.316Z,11.98
2022-08-16T18:57:31.780Z,8.73
2022-08-16T19:00:01.692Z,8.88
2022-08-16T19:02:57.644Z,9.50
2022-08-16T19:05:22.939Z,9.93
2022-08-16T19:07:52.604Z,10.55
2022-08-16T19:10:21.673Z,10.68
2022-08-16T19:12:50.371Z,11.15
2022-08-16T19:15:23.608Z,11.50
2022-08-16T19:17:52.267Z,11.75
2022-08-16T19:20:22.656Z,12.38
2022-08-16T19:23:05.404Z,12.13
2022-08-16T19:25:48.776Z,12.80
2022-08-16T19:28:50.896Z,14.50
2022-08-16T19:31:16.291Z,12.10
2022-08-16T19:33:54.223Z,13.10
2022-08-16T19:36:32.084Z,12.45
2022-08-16T19:39:04.933Z,12.55
2022-08-16T19:41:36.357Z,11.48
2022-08-16T19:44:06.980Z,13.52
2022-08-16T19:46:38.276Z,14.07
2022-08-16T19:49:06.886Z,14.27
2022-08-16T19:51:35.488Z,14.07
2022-08-16T19:54:06.256Z,13.73
2022-08-16T19:56:34.751Z,13.80
2022-08-16T19:59:21.062Z,14.02
2022-08-16T20:01:52.787Z,17.90
2022-08-16T20:04:22.396Z,18.67
2022-08-16T20:06:52.291Z,16.92
2022-08-16T20:09:21.817Z,18.85
2022-08-16T20:11:52.105Z,19.65
2022-08-16T20:14:25.222Z,21.48
2022-08-16T20:16:58.795Z,22.00
2022-08-16T20:19:28.932Z,21.30
2022-08-16T20:22:01.042Z,21.63
2022-08-16T20:24:34.622Z,21.20
2022-08-16T20:29:33.068Z,22.13
2022-08-16T20:32:02.932Z,20.05
2022-08-16T20:34:31.692Z,18.55
2022-08-16T20:37:00.131Z,17.88
2022-08-16T20:39:28.874Z,19.52
2022-08-16T20:41:57.770Z,24.00
2022-08-16T20:44:26.234Z,24.20
2022-08-16T20:46:54.840Z,23.92
2022-08-16T20:49:24.701Z,30.38
2022-08-16T20:51:57.397Z,29.80
2022-08-16T20:54:29.469Z,54.65
2022-08-16T20:56:57.933Z,20.05
2022-08-16T20:59:26.408Z,17.88
2022-08-16T21:01:54.964Z,17.05
2022-08-16T21:04:27.712Z,16.90
2022-08-16T21:06:58.423Z,17.80
2022-08-16T21:09:31.408Z,16.60
2022-08-16T21:12:03.116Z,16.60
2022-08-16T21:14:33.903Z,17.05
2022-08-16T21:17:03.035Z,17.92
2022-08-16T21:19:33.839Z,17.33
2022-08-16T21:22:11.870Z,18.02
2022-08-16T21:24:40.417Z,17.75
2022-08-16T21:27:09.324Z,17.38
2022-08-16T21:29:43.093Z,17.95
2022-08-16T21:32:14.853Z,17.70
2022-08-16T21:34:44.796Z,17.83
2022-08-16T21:37:15.611Z,18.55
2022-08-16T21:39:44.645Z,19.70
2022-08-16T21:42:17.225Z,19.15
2022-08-16T21:44:46.270Z,18.98
2022-08-16T21:47:14.697Z,19.40
2022-08-16T21:49:44.549Z,20.85
2022-08-16T21:52:26.119Z,21.63
2022-08-16T21:54:57.538Z,20.95
2022-08-16T21:57:26.465Z,19.38
2022-08-16T22:00:11.149Z,20.50
2022-08-16T22:02:41.323Z,22.15
2022-08-16T22:05:11.251Z,21.00
2022-08-16T22:07:39.646Z,20.63
2022-08-16T22:11:05.916Z,19.60
2022-08-16T22:12:57.832Z,19.60
2022-08-16T22:15:26.773Z,19.05
2022-08-16T22:17:57.892Z,19.35
2022-08-16T22:20:30.369Z,19.58
2022-08-16T22:23:06.699Z,18.50
2022-08-16T22:25:35.163Z,18.98
2022-08-16T22:28:04.333Z,20.45
2022-08-16T22:30:32.852Z,18.95
2022-08-16T22:33:02.059Z,18.70
2022-08-16T22:35:31.909Z,19.23
2022-08-16T22:38:47.823Z,18.48
2022-08-16T22:40:49.304Z,16.63
2022-08-16T22:43:18.325Z,16.88
2022-08-16T22:45:46.771Z,17.30
2022-08-16T22:48:17.337Z,16.88
2022-08-16T22:50:47.778Z,17.00
2022-08-16T22:53:16.281Z,17.48
2022-08-16T22:55:44.808Z,16.00
2022-08-16T22:58:13.856Z,17.08
2022-08-16T23:00:44.149Z,16.88
2022-08-16T23:03:16.379Z,16.25
2022-08-16T23:05:49.304Z,16.27
2022-08-16T23:08:39.510Z,17.70
2022-08-16T23:11:10.100Z,17.17
2022-08-16T23:13:52.805Z,16.73
2022-08-16T23:16:25.051Z,16.60
2022-08-16T23:19:03.467Z,16.08
2022-08-16T23:21:34.176Z,17.23
2022-08-16T23:24:03.037Z,16.08
2022-08-16T23:26:46.369Z,17.05
2022-08-16T23:29:23.607Z,16.15
2022-08-16T23:31:58.372Z,16.42
2022-08-16T23:34:29.508Z,17.33
2022-08-16T23:36:59.617Z,24.38
2022-08-16T23:39:28.075Z,16.08
2022-08-16T23:41:56.798Z,16.60
2022-08-16T23:44:44.249Z,16.00
2022-08-16T23:47:13.812Z,16.45
2022-08-16T23:49:58.569Z,16.42
2022-08-16T23:52:38.441Z,15.73
2022-08-16T23:55:20.536Z,15.82
2022-08-16T23:57:49.655Z,18.63
